Azalea Park, Florida
Current Conditions -  °F | °C
As of 1:53 PM on Monday 20 Oct 2014 (Local Time) from KORL Reporting Station
Few Clouds Few Clouds  
Wind Chill: 83°   Ceiling: Unl
Heat Index: 84°   Visibility: 10mi
Dew Point: 63°   Wind: 3mph
Humidity: 51%   Direction: 180°S
Pressure: 30"   Gusts: NA
Location:  28.5525°N, 81.3003°W
Report Text: KORL 201753Z 18003KT 10SM FEW048 FEW055 28/17 A3000 RMK AO2 SLP161 T02830172 10294 20200 58024
Loading
Personal Weather Stations






























Interactive Weather Map
Tropical Storm Tracking
New forecast layout! Learn more

10-Day Weather Forecast

Advertisements
Track Severe Weather on mobile